Time;durP1;ratioP1;P1;durP2;ratioP2;P2;SDS_P1;SDS_P2;PMS_P1;PMS_P2;Temp;Humidity;BMP_temperature;BMP_pressure;BME280_temperature;BME280_humidity;BME280_pressure;Samples;Min_cycle;Max_cycle;Signal;HPM_P1;HPM_P2
2021/12/25 00:02:19;;;;;;;4.10;2.80;;;10.10;99.90;;;;;;5056383;28;20539;-77
2021/12/25 00:04:45;;;;;;;4.70;3.23;;;10.10;99.90;;;;;;5039422;28;20188;-85
2021/12/25 00:07:11;;;;;;;3.37;2.63;;;10.00;99.90;;;;;;5056664;28;20172;-83
2021/12/25 00:09:36;;;;;;;4.20;2.87;;;9.90;99.90;;;;;;5072840;28;20180;-78
2021/12/25 00:12:03;;;;;;;4.37;3.03;;;9.80;99.90;;;;;;5064283;28;20227;-77
2021/12/25 00:14:28;;;;;;;5.00;3.03;;;9.80;99.90;;;;;;5090156;28;20204;-78
2021/12/25 00:16:57;;;;;;;3.63;2.70;;;9.80;99.90;;;;;;5039301;28;20179;-86
2021/12/25 00:19:23;;;;;;;3.60;2.80;;;9.90;99.90;;;;;;5056448;28;20180;-77
2021/12/25 00:21:48;;;;;;;4.63;3.47;;;10.00;99.90;;;;;;5070115;28;20562;-85
2021/12/25 00:24:14;;;;;;;5.17;3.20;;;10.00;99.90;;;;;;5055994;28;20189;-77
2021/12/25 00:26:52;;;;;;;3.23;2.90;;;10.10;99.90;;;;;;5074706;28;20196;-80
2021/12/25 00:34:36;;;;;;;5.77;4.10;;;10.50;99.90;;;;;;5057221;28;20172;-77
2021/12/25 00:37:03;;;;;;;4.93;3.43;;;10.50;99.90;;;;;;5055762;28;20218;-77
2021/12/25 00:39:29;;;;;;;5.83;4.07;;;10.40;99.90;;;;;;5075026;28;20164;-82
2021/12/25 00:42:00;;;;;;;4.90;3.17;;;10.40;99.90;;;;;;5073725;28;20686;-77
2021/12/25 00:44:26;;;;;;;5.83;3.90;;;10.30;99.90;;;;;;5072937;28;20180;-84
2021/12/25 00:46:52;;;;;;;7.73;3.50;;;10.20;99.90;;;;;;5056635;28;20197;-76
2021/12/25 00:49:18;;;;;;;4.97;3.70;;;10.20;99.90;;;;;;5056624;28;20165;-78
2021/12/25 00:51:45;;;;;;;4.57;3.33;;;10.20;99.90;;;;;;5055824;28;20175;-78
2021/12/25 00:54:11;;;;;;;7.87;3.43;;;10.30;99.90;;;;;;5073533;28;20185;-78
2021/12/25 00:56:37;;;;;;;5.60;3.80;;;10.40;99.90;;;;;;5056266;28;20636;-77
2021/12/25 00:59:03;;;;;;;7.83;3.90;;;10.40;99.90;;;;;;5072733;28;20188;-78
2021/12/25 01:01:30;;;;;;;5.57;4.20;;;10.40;99.90;;;;;;5073344;28;20196;-77
2021/12/25 01:03:56;;;;;;;4.73;3.70;;;10.40;99.90;;;;;;5073069;28;20687;-78
2021/12/25 01:06:21;;;;;;;4.93;4.03;;;10.30;99.90;;;;;;5073032;28;20208;-78
2021/12/25 01:08:47;;;;;;;5.97;3.77;;;10.50;99.90;;;;;;5054332;28;20260;-79
2021/12/25 01:11:15;;;;;;;6.43;4.00;;;10.40;99.90;;;;;;5054535;28;20769;-78
2021/12/25 01:13:48;;;;;;;7.30;4.13;;;10.40;99.90;;;;;;5054269;28;20307;-84
2021/12/25 01:37:19;;;;;;;5.27;3.90;;;10.40;99.90;;;;;;5056996;28;20176;-83
2021/12/25 01:40:44;;;;;;;4.77;3.97;;;10.30;99.90;;;;;;5056564;28;20260;-82
2021/12/25 01:48:20;;;;;;;6.90;4.70;;;10.40;99.90;;;;;;5071437;28;20177;-76
2021/12/25 01:50:46;;;;;;;5.00;4.00;;;10.30;99.90;;;;;;5072517;28;20204;-83
2021/12/25 01:53:12;;;;;;;7.23;4.63;;;10.20;99.90;;;;;;5053540;28;20223;-78
2021/12/25 01:55:39;;;;;;;6.50;4.60;;;10.20;99.90;;;;;;5070369;28;20321;-77
2021/12/25 01:58:06;;;;;;;6.90;5.03;;;10.20;99.90;;;;;;5070569;28;20195;-77
2021/12/25 02:00:46;;;;;;;7.40;4.67;;;10.10;99.90;;;;;;5070863;28;20222;-81
2021/12/25 02:03:14;;;;;;;7.23;5.10;;;10.10;99.90;;;;;;5070088;28;20173;-80
2021/12/25 02:05:41;;;;;;;6.47;4.90;;;10.20;99.90;;;;;;5053268;28;20548;-81
2021/12/25 02:08:08;;;;;;;6.80;5.20;;;10.10;99.90;;;;;;5071088;28;20209;-82
2021/12/25 02:10:35;;;;;;;7.10;5.17;;;10.10;99.90;;;;;;5069823;28;20186;-82
2021/12/25 02:13:04;;;;;;;7.23;4.93;;;10.10;99.90;;;;;;5069824;28;20611;-82
2021/12/25 02:15:32;;;;;;;7.30;4.50;;;10.00;99.90;;;;;;5053264;28;20200;-77
2021/12/25 02:21:26;;;;;;;6.13;4.83;;;10.00;99.90;;;;;;5069593;28;20207;-77
2021/12/25 02:23:31;;;;;;;6.83;4.57;;;10.10;99.90;;;;;;5063502;28;20181;-82
2021/12/25 02:25:58;;;;;;;6.20;4.70;;;10.20;99.90;;;;;;5070009;28;20172;-81
2021/12/25 02:28:25;;;;;;;7.70;4.83;;;10.20;99.90;;;;;;5036352;28;20204;-76
2021/12/25 02:30:54;;;;;;;6.67;4.83;;;10.20;99.90;;;;;;5069406;28;20180;-76
2021/12/25 02:33:20;;;;;;;9.03;4.53;;;10.20;99.90;;;;;;5052309;28;20550;-76
2021/12/25 02:35:47;;;;;;;8.53;4.37;;;10.30;99.90;;;;;;5071264;28;20532;-75
2021/12/25 02:38:13;;;;;;;6.40;3.97;;;10.30;99.90;;;;;;5068896;28;20179;-76
2021/12/25 02:40:40;;;;;;;6.70;5.00;;;10.30;99.90;;;;;;5069528;28;20638;-76
2021/12/25 02:43:07;;;;;;;8.10;4.60;;;10.20;99.90;;;;;;5075405;28;20179;-76
2021/12/25 02:45:33;;;;;;;7.83;5.40;;;10.30;99.90;;;;;;5070432;28;20687;-81
2021/12/25 02:48:07;;;;;;;6.37;5.20;;;10.20;99.90;;;;;;5052124;28;20650;-80
2021/12/25 02:50:34;;;;;;;7.40;5.17;;;10.20;99.90;;;;;;5032258;28;20194;-81
2021/12/25 02:53:01;;;;;;;8.63;5.37;;;10.20;99.90;;;;;;5060554;28;20180;-75
2021/12/25 02:55:28;;;;;;;5.67;4.83;;;10.10;99.90;;;;;;5074520;28;20204;-75
2021/12/25 02:57:56;;;;;;;7.67;5.53;;;10.10;99.90;;;;;;5069514;28;20192;-76
2021/12/25 03:00:30;;;;;;;8.00;5.10;;;9.90;99.90;;;;;;5051777;28;20196;-74
2021/12/25 03:02:57;;;;;;;7.57;5.73;;;9.80;99.90;;;;;;5069653;28;20186;-77
2021/12/25 03:05:24;;;;;;;9.90;5.47;;;9.90;99.90;;;;;;5070321;28;20176;-82
2021/12/25 03:07:50;;;;;;;8.07;5.23;;;10.00;99.90;;;;;;5052229;28;20385;-76
2021/12/25 03:10:17;;;;;;;7.13;5.27;;;10.00;99.90;;;;;;5052023;28;20619;-83
2021/12/25 03:12:54;;;;;;;6.17;4.70;;;10.00;99.90;;;;;;5069351;28;20521;-76
2021/12/25 03:15:31;;;;;;;6.63;4.67;;;9.90;99.90;;;;;;5054085;28;20200;-82
2021/12/25 03:17:57;;;;;;;6.23;4.63;;;9.80;99.90;;;;;;5069294;28;20198;-76
2021/12/25 03:20:24;;;;;;;9.47;5.53;;;9.90;99.90;;;;;;5068490;28;20200;-82
2021/12/25 03:22:50;;;;;;;7.87;6.20;;;10.00;99.90;;;;;;5068561;28;20169;-76
2021/12/25 03:25:17;;;;;;;8.13;5.43;;;10.20;99.90;;;;;;5069301;28;20641;-76
2021/12/25 03:27:46;;;;;;;7.80;5.57;;;10.10;99.90;;;;;;5068373;28;20559;-81
2021/12/25 03:30:17;;;;;;;8.17;5.27;;;10.00;99.90;;;;;;5069664;28;20207;-79
2021/12/25 03:32:45;;;;;;;7.70;6.13;;;10.10;99.90;;;;;;5068713;28;20184;-76
2021/12/25 03:35:11;;;;;;;8.40;6.00;;;10.20;99.90;;;;;;5070368;28;20201;-83
2021/12/25 03:37:36;;;;;;;9.43;6.10;;;10.00;99.90;;;;;;5068732;28;20653;-77
2021/12/25 03:40:04;;;;;;;7.97;5.70;;;10.00;99.90;;;;;;5052134;28;20286;-82
2021/12/25 03:42:30;;;;;;;9.00;5.87;;;10.10;99.90;;;;;;5069607;28;20164;-82
2021/12/25 03:44:56;;;;;;;7.73;4.67;;;10.00;99.90;;;;;;5069496;28;20673;-75
2021/12/25 03:47:27;;;;;;;5.10;3.60;;;9.90;99.90;;;;;;5051322;28;20242;-75
2021/12/25 03:58:20;;;;;;;4.30;2.80;;;9.90;99.90;;;;;;5069341;28;20184;-80
2021/12/25 04:00:48;;;;;;;3.20;2.60;;;9.90;99.90;;;;;;5069430;28;20606;-81
2021/12/25 04:03:25;;;;;;;5.00;2.80;;;9.90;99.90;;;;;;5051852;28;20652;-82
2021/12/25 04:05:51;;;;;;;3.80;2.57;;;10.10;99.90;;;;;;5053111;28;20201;-80
2021/12/25 04:08:22;;;;;;;4.43;2.60;;;10.10;99.90;;;;;;5067940;28;20177;-75
2021/12/25 04:10:52;;;;;;;3.03;2.27;;;9.90;99.90;;;;;;5068037;28;20543;-81
2021/12/25 04:13:19;;;;;;;2.77;2.40;;;9.80;99.90;;;;;;5069141;28;20182;-80
2021/12/25 04:15:46;;;;;;;3.57;2.10;;;9.90;99.90;;;;;;5067782;28;20189;-82
2021/12/25 04:18:12;;;;;;;2.67;1.97;;;9.90;99.90;;;;;;5067847;28;20176;-80
2021/12/25 04:20:38;;;;;;;2.83;2.13;;;9.80;99.90;;;;;;5068205;28;20207;-75
2021/12/25 04:23:22;;;;;;;2.13;1.90;;;9.90;99.90;;;;;;5067972;28;20177;-75
2021/12/25 04:25:48;;;;;;;3.13;2.10;;;9.90;99.90;;;;;;5050845;28;20171;-81
2021/12/25 04:28:32;;;;;;;4.33;2.13;;;9.90;99.90;;;;;;5068041;28;20173;-76
2021/12/25 05:06:03;;;;;;;2.20;1.40;;;9.90;99.90;;;;;;5071291;28;20169;-82
2021/12/25 05:08:29;;;;;;;1.47;1.30;;;9.90;99.90;;;;;;5037723;28;20161;-82
2021/12/25 05:10:54;;;;;;;2.07;1.57;;;10.00;99.90;;;;;;5072317;28;20175;-76
2021/12/25 05:13:21;;;;;;;2.90;1.50;;;9.90;99.90;;;;;;5070708;28;20180;-76
2021/12/25 05:15:47;;;;;;;2.40;1.67;;;9.70;99.90;;;;;;5037287;28;20287;-81
2021/12/25 05:18:13;;;;;;;1.73;1.30;;;9.50;99.90;;;;;;5070809;28;20169;-76
2021/12/25 05:20:39;;;;;;;2.40;1.57;;;9.60;99.90;;;;;;5070528;28;20697;-76
2021/12/25 05:23:05;;;;;;;2.23;1.53;;;9.60;99.90;;;;;;5037290;28;20206;-75
2021/12/25 05:25:33;;;;;;;1.70;1.43;;;9.60;99.90;;;;;;5053629;28;20172;-77
2021/12/25 05:28:00;;;;;;;1.50;1.40;;;9.50;99.90;;;;;;5054699;28;20192;-76
2021/12/25 05:30:27;;;;;;;2.70;1.37;;;9.60;99.90;;;;;;5054403;28;20234;-81
2021/12/25 05:32:53;;;;;;;1.80;1.30;;;9.80;99.90;;;;;;5071771;28;20251;-76
2021/12/25 05:35:19;;;;;;;1.80;1.33;;;9.90;99.90;;;;;;5070150;28;20264;-80
2021/12/25 05:37:45;;;;;;;3.13;1.60;;;10.10;99.90;;;;;;5069937;28;20267;-81
2021/12/25 05:40:12;;;;;;;2.17;1.77;;;10.10;99.90;;;;;;5053329;28;20657;-76
2021/12/25 05:42:39;;;;;;;2.20;1.90;;;10.10;99.90;;;;;;5069977;28;20226;-76
2021/12/25 05:45:05;;;;;;;1.70;1.60;;;10.20;99.90;;;;;;5052492;28;20237;-83
2021/12/25 05:47:31;;;;;;;2.53;1.60;;;10.10;99.90;;;;;;5071455;28;20172;-81
2021/12/25 05:49:57;;;;;;;2.77;1.80;;;10.10;99.90;;;;;;5053441;28;20179;-76
2021/12/25 05:52:24;;;;;;;2.40;1.80;;;10.10;99.90;;;;;;5070256;28;20643;-81
2021/12/25 05:54:49;;;;;;;2.03;1.70;;;10.10;99.90;;;;;;5069917;28;20177;-75
2021/12/25 05:57:15;;;;;;;2.33;1.90;;;10.10;99.90;;;;;;5053058;28;20184;-81
2021/12/25 05:59:41;;;;;;;1.83;1.50;;;9.90;99.90;;;;;;5052827;28;20683;-77
2021/12/25 06:02:07;;;;;;;2.17;1.80;;;9.90;99.90;;;;;;5052728;28;20172;-76
2021/12/25 06:04:34;;;;;;;2.00;1.77;;;9.70;99.90;;;;;;5070976;28;20176;-76
2021/12/25 06:07:01;;;;;;;3.47;2.13;;;9.80;99.90;;;;;;5070085;28;20165;-75
2021/12/25 06:09:28;;;;;;;2.37;2.00;;;9.90;99.90;;;;;;5053397;28;20164;-79
2021/12/25 06:11:54;;;;;;;3.20;2.53;;;9.90;99.90;;;;;;5069574;28;20177;-75
2021/12/25 06:14:21;;;;;;;4.80;2.17;;;10.00;99.90;;;;;;5070813;28;20777;-77
2021/12/25 06:16:49;;;;;;;3.57;2.20;;;10.00;99.90;;;;;;5069243;28;20173;-75
2021/12/25 06:19:15;;;;;;;2.73;2.00;;;10.00;99.90;;;;;;5069589;28;20196;-76
2021/12/25 06:21:43;;;;;;;2.30;1.97;;;9.90;99.90;;;;;;5069546;28;20211;-77
2021/12/25 06:24:09;;;;;;;3.77;2.30;;;9.90;99.90;;;;;;5069353;28;20218;-80
2021/12/25 06:26:38;;;;;;;3.10;2.33;;;10.00;99.90;;;;;;5052471;28;20495;-77
2021/12/25 06:29:05;;;;;;;3.30;2.60;;;10.00;99.90;;;;;;5069219;28;20168;-82
2021/12/25 06:31:31;;;;;;;4.20;2.70;;;9.90;99.90;;;;;;5052824;28;20624;-76
2021/12/25 06:33:58;;;;;;;3.70;2.67;;;10.00;99.90;;;;;;5069683;28;20185;-77
2021/12/25 06:36:24;;;;;;;3.17;2.67;;;9.90;99.90;;;;;;5068797;28;20621;-76
2021/12/25 06:38:50;;;;;;;4.73;2.93;;;10.00;99.90;;;;;;5070563;28;20173;-82
2021/12/25 06:41:16;;;;;;;5.10;3.00;;;9.80;99.90;;;;;;5069740;28;20204;-77
2021/12/25 06:43:42;;;;;;;3.93;2.63;;;10.00;99.90;;;;;;5068601;28;20263;-80
2021/12/25 06:46:08;;;;;;;4.67;3.00;;;10.00;99.90;;;;;;5069902;28;20579;-75
2021/12/25 06:48:34;;;;;;;3.73;2.93;;;10.10;99.90;;;;;;5085764;28;20164;-80
2021/12/25 06:51:01;;;;;;;4.53;3.30;;;10.10;99.90;;;;;;5068991;28;20564;-75
2021/12/25 06:53:26;;;;;;;5.93;3.10;;;10.00;99.90;;;;;;5068672;28;20473;-81
2021/12/25 06:55:52;;;;;;;4.03;2.73;;;10.10;99.90;;;;;;5068774;28;20251;-81
2021/12/25 06:58:18;;;;;;;3.77;2.83;;;10.10;99.90;;;;;;5068465;28;20212;-74
2021/12/25 07:00:44;;;;;;;3.57;2.83;;;10.10;99.90;;;;;;5068345;28;20310;-80
2021/12/25 07:03:10;;;;;;;6.63;4.23;;;10.30;99.90;;;;;;5070349;28;20165;-75
2021/12/25 07:05:36;;;;;;;6.93;3.77;;;10.30;99.90;;;;;;5068944;28;20177;-75
2021/12/25 07:08:02;;;;;;;5.47;3.23;;;10.30;99.90;;;;;;5069922;28;20179;-76
2021/12/25 07:10:27;;;;;;;6.30;3.47;;;10.30;99.90;;;;;;5067924;28;20565;-76
2021/12/25 07:12:54;;;;;;;4.37;2.97;;;10.30;99.90;;;;;;5068555;28;20256;-81
2021/12/25 07:15:20;;;;;;;3.97;2.87;;;10.30;99.90;;;;;;5069539;28;20298;-81
2021/12/25 07:17:46;;;;;;;3.70;2.50;;;10.30;99.90;;;;;;5069984;28;20697;-76
2021/12/25 07:20:12;;;;;;;4.57;3.13;;;10.40;99.90;;;;;;5068617;28;20185;-75
2021/12/25 07:22:38;;;;;;;4.80;3.30;;;10.30;99.90;;;;;;5071032;28;20169;-74
2021/12/25 07:25:06;;;;;;;5.37;2.97;;;10.10;99.90;;;;;;5069253;28;20527;-80
2021/12/25 07:27:32;;;;;;;3.67;3.00;;;10.20;99.90;;;;;;5068448;28;20180;-80
2021/12/25 07:29:58;;;;;;;3.77;2.90;;;10.10;99.90;;;;;;5069772;28;20168;-74
2021/12/25 07:32:24;;;;;;;5.63;2.90;;;10.30;99.90;;;;;;5051651;28;20172;-79
2021/12/25 07:34:51;;;;;;;4.40;2.87;;;10.30;99.90;;;;;;5069280;28;20285;-79
2021/12/25 07:37:17;;;;;;;3.47;2.63;;;10.30;99.90;;;;;;5068740;28;20179;-81
2021/12/25 07:39:43;;;;;;;4.07;2.77;;;10.40;99.90;;;;;;5070025;28;20247;-74
2021/12/25 07:42:11;;;;;;;3.43;2.07;;;10.20;99.90;;;;;;5069454;28;20164;-81
2021/12/25 07:44:37;;;;;;;2.80;2.20;;;10.10;99.90;;;;;;5071114;28;20176;-80
2021/12/25 07:47:09;;;;;;;3.53;2.37;;;10.10;99.90;;;;;;5069553;28;20183;-81
2021/12/25 07:49:37;;;;;;;4.60;2.70;;;10.20;99.90;;;;;;5071924;28;20290;-81
2021/12/25 07:52:04;;;;;;;3.80;2.20;;;10.30;99.90;;;;;;5068762;28;20176;-80
2021/12/25 07:54:30;;;;;;;6.17;2.40;;;10.20;99.90;;;;;;5069381;28;20580;-81
2021/12/25 07:56:56;;;;;;;2.97;2.33;;;10.30;99.90;;;;;;5051980;28;20410;-80
2021/12/25 07:59:22;;;;;;;2.60;2.03;;;10.20;99.90;;;;;;5070634;28;20188;-80
2021/12/25 08:01:50;;;;;;;3.67;2.33;;;10.20;99.90;;;;;;5065625;28;20684;-75
2021/12/25 08:04:24;;;;;;;3.07;2.10;;;10.30;99.90;;;;;;5067264;28;20188;-80
2021/12/25 08:06:50;;;;;;;2.60;1.47;;;10.30;99.90;;;;;;5052821;28;20176;-81
2021/12/25 08:09:28;;;;;;;2.80;2.37;;;10.50;99.90;;;;;;5054948;28;20189;-81
2021/12/25 08:11:58;;;;;;;4.10;2.20;;;10.50;99.90;;;;;;5071767;28;20180;-75
2021/12/25 08:14:25;;;;;;;3.33;2.00;;;10.50;99.90;;;;;;5090238;28;20204;-75
2021/12/25 08:17:00;;;;;;;2.87;2.23;;;10.60;99.90;;;;;;5072994;28;20196;-76
2021/12/25 08:19:28;;;;;;;3.57;2.53;;;10.60;99.90;;;;;;5069744;28;20194;-81
2021/12/25 08:21:54;;;;;;;4.30;2.33;;;10.50;99.90;;;;;;5086485;28;20200;-76
2021/12/25 08:24:21;;;;;;;3.30;2.40;;;10.50;99.90;;;;;;5073292;28;20173;-76
2021/12/25 08:26:48;;;;;;;4.13;2.33;;;10.40;99.90;;;;;;5072328;28;20229;-81
2021/12/25 08:29:14;;;;;;;3.33;2.40;;;10.50;99.90;;;;;;5072147;28;20263;-75
2021/12/25 08:31:43;;;;;;;2.40;2.00;;;10.40;99.90;;;;;;5038403;28;20189;-82
2021/12/25 08:34:10;;;;;;;4.17;2.73;;;10.40;99.90;;;;;;5071763;28;20213;-75
2021/12/25 08:36:36;;;;;;;3.53;2.40;;;10.40;99.90;;;;;;5071050;28;20217;-75
2021/12/25 08:39:05;;;;;;;2.87;2.23;;;10.60;99.90;;;;;;5070138;28;20627;-76
2021/12/25 08:41:31;;;;;;;4.30;2.33;;;10.50;99.90;;;;;;5086678;28;20199;-75
2021/12/25 08:44:04;;;;;;;2.90;2.30;;;10.40;99.90;;;;;;5066282;28;20169;-80
2021/12/25 08:49:17;;;;;;;3.03;2.20;;;10.30;99.90;;;;;;5072172;28;21423;-83
2021/12/25 08:51:44;;;;;;;3.37;2.50;;;10.40;99.90;;;;;;5071785;28;20169;-84
2021/12/25 08:54:11;;;;;;;2.50;2.20;;;10.40;99.90;;;;;;5072003;28;20184;-77
2021/12/25 08:56:42;;;;;;;3.40;2.50;;;10.50;99.90;;;;;;5055526;28;20172;-84
2021/12/25 08:59:08;;;;;;;3.03;2.60;;;10.50;99.90;;;;;;5088848;28;20652;-82
2021/12/25 09:01:37;;;;;;;2.70;2.20;;;10.50;99.90;;;;;;5071815;28;20204;-76
2021/12/25 09:04:06;;;;;;;2.80;2.20;;;10.50;99.90;;;;;;5055236;28;20230;-77
2021/12/25 09:06:35;;;;;;;3.13;2.20;;;10.40;99.90;;;;;;5088149;28;20233;-82
2021/12/25 09:09:06;;;;;;;4.73;1.80;;;10.40;99.90;;;;;;5086645;28;20227;-75
2021/12/25 09:11:32;;;;;;;3.57;2.33;;;10.40;99.90;;;;;;5056292;28;20533;-83
2021/12/25 09:13:58;;;;;;;3.50;2.57;;;10.40;99.90;;;;;;5085709;28;20181;-78
2021/12/25 09:16:24;;;;;;;3.40;2.10;;;10.50;99.90;;;;;;5069492;28;20204;-83
2021/12/25 09:18:53;;;;;;;4.10;2.73;;;10.50;99.90;;;;;;5070624;28;20182;-75
2021/12/25 09:21:19;;;;;;;4.00;2.60;;;10.70;99.90;;;;;;5071008;28;20212;-77
2021/12/25 09:23:45;;;;;;;3.67;2.60;;;10.80;99.90;;;;;;5072703;28;20600;-79
2021/12/25 09:26:11;;;;;;;3.60;2.10;;;10.80;99.90;;;;;;5072511;28;20245;-78
2021/12/25 09:28:40;;;;;;;2.97;2.60;;;10.90;99.90;;;;;;5084363;28;20920;-80
2021/12/25 09:31:06;;;;;;;3.63;2.30;;;10.80;99.90;;;;;;5056713;28;20188;-87
2021/12/25 09:33:37;;;;;;;3.67;2.53;;;10.80;99.90;;;;;;5055370;28;20180;-88
2021/12/25 09:36:03;;;;;;;2.73;2.20;;;10.80;99.90;;;;;;5072120;28;20574;-86
2021/12/25 09:38:30;;;;;;;3.20;2.00;;;10.80;99.90;;;;;;5087423;28;20723;-87
2021/12/25 09:40:58;;;;;;;3.20;2.30;;;10.70;99.90;;;;;;5070143;28;20319;-83
2021/12/25 09:43:25;;;;;;;3.13;2.17;;;10.50;99.90;;;;;;5069694;28;20181;-77
2021/12/25 09:45:51;;;;;;;2.17;1.93;;;10.50;99.90;;;;;;5054995;28;20618;-84
2021/12/25 09:48:17;;;;;;;2.93;2.20;;;10.70;99.90;;;;;;5072489;28;20579;-87
2021/12/25 09:50:47;;;;;;;3.83;2.37;;;10.70;99.90;;;;;;5084570;28;20267;-85
2021/12/25 09:53:15;;;;;;;3.30;1.97;;;10.80;99.90;;;;;;5072356;28;20184;-84
2021/12/25 09:56:01;;;;;;;2.93;2.10;;;10.80;99.90;;;;;;5055489;28;20176;-84
2021/12/25 09:58:30;;;;;;;2.60;2.00;;;10.70;99.90;;;;;;5075549;28;20200;-89
2021/12/25 10:01:02;;;;;;;3.30;2.13;;;10.70;99.90;;;;;;5053717;28;20200;-86
2021/12/25 10:03:45;;;;;;;2.50;2.10;;;10.70;99.90;;;;;;5052421;28;20221;-84
2021/12/25 10:06:31;;;;;;;2.67;1.70;;;10.70;99.90;;;;;;5066676;28;20172;-88
2021/12/25 10:09:11;;;;;;;2.93;1.93;;;10.90;99.90;;;;;;5076987;28;20271;-85
2021/12/25 10:11:36;;;;;;;3.03;1.97;;;10.90;99.90;;;;;;5068367;28;20176;-88
2021/12/25 10:14:05;;;;;;;3.00;1.83;;;11.00;99.90;;;;;;5071156;28;20253;-87
2021/12/25 10:16:40;;;;;;;2.43;1.73;;;11.10;99.90;;;;;;5070997;28;20179;-89
2021/12/25 10:19:16;;;;;;;3.47;2.00;;;11.10;99.90;;;;;;5064149;28;20185;-81
2021/12/25 10:21:42;;;;;;;2.73;1.40;;;11.30;99.90;;;;;;5072140;28;20204;-88
2021/12/25 10:24:26;;;;;;;2.00;1.47;;;11.20;99.90;;;;;;5079638;28;20176;-81
2021/12/25 10:26:53;;;;;;;2.53;1.70;;;11.20;99.90;;;;;;5055421;28;20176;-86
2021/12/25 10:29:25;;;;;;;6.03;3.30;;;11.20;99.90;;;;;;5069657;28;20185;-83
2021/12/25 10:31:54;;;;;;;5.03;3.03;;;11.20;99.90;;;;;;5067392;28;20176;-82
2021/12/25 10:34:23;;;;;;;2.57;1.70;;;11.30;99.90;;;;;;5074250;28;20682;-86
2021/12/25 10:36:50;;;;;;;1.87;1.40;;;11.20;99.90;;;;;;5053465;28;20522;-83
2021/12/25 10:39:25;;;;;;;2.57;1.83;;;11.10;99.90;;;;;;5054694;28;20188;-81
2021/12/25 10:41:55;;;;;;;1.33;1.17;;;11.30;99.90;;;;;;5070270;28;20285;-84
2021/12/25 10:44:24;;;;;;;1.80;0.90;;;11.20;99.90;;;;;;5069053;28;20685;-81
2021/12/25 10:47:06;;;;;;;2.37;1.40;;;11.20;99.90;;;;;;5068389;28;20180;-84
2021/12/25 10:49:34;;;;;;;1.23;1.00;;;11.40;99.90;;;;;;5086239;28;20194;-82
2021/12/25 10:52:13;;;;;;;1.30;0.90;;;11.40;99.90;;;;;;5068245;28;20192;-77
2021/12/25 10:54:43;;;;;;;1.17;0.90;;;11.20;99.90;;;;;;5062848;28;20176;-86
2021/12/25 10:57:10;;;;;;;1.20;0.83;;;11.20;99.90;;;;;;5050972;28;20181;-78
2021/12/25 10:59:48;;;;;;;4.77;1.23;;;11.30;99.90;;;;;;5070679;28;20187;-80
2021/12/25 11:02:35;;;;;;;1.97;1.30;;;11.40;99.90;;;;;;5069057;28;20706;-79
2021/12/25 11:05:14;;;;;;;2.07;0.90;;;11.40;99.90;;;;;;5069905;28;20180;-79
2021/12/25 11:07:40;;;;;;;1.00;0.90;;;11.40;99.90;;;;;;5069041;28;20168;-85
2021/12/25 11:10:12;;;;;;;0.80;0.77;;;11.40;99.90;;;;;;5052934;28;20583;-88
2021/12/25 11:12:39;;;;;;;0.80;0.70;;;11.50;99.90;;;;;;5060827;28;20614;-86
2021/12/25 11:15:23;;;;;;;0.50;0.50;;;11.50;99.90;;;;;;5069432;28;20288;-79
2021/12/25 11:17:53;;;;;;;1.90;0.70;;;11.50;99.90;;;;;;5068723;28;20209;-85
2021/12/25 11:20:37;;;;;;;0.87;0.70;;;11.40;99.90;;;;;;5081339;28;20199;-82
2021/12/25 11:23:05;;;;;;;0.80;0.50;;;11.40;99.90;;;;;;5086104;28;20701;-80
2021/12/25 11:25:33;;;;;;;1.60;0.77;;;11.50;99.90;;;;;;5087576;28;20179;-78
2021/12/25 11:28:01;;;;;;;1.07;0.60;;;11.60;99.90;;;;;;5070768;28;20196;-78
2021/12/25 11:30:34;;;;;;;1.67;0.90;;;11.70;99.90;;;;;;5072297;28;20804;-85
2021/12/25 11:33:01;;;;;;;1.03;0.77;;;12.00;99.90;;;;;;5070428;28;20172;-85
2021/12/25 11:35:27;;;;;;;1.13;0.80;;;11.90;99.90;;;;;;5071691;28;20535;-85
2021/12/25 11:37:55;;;;;;;1.77;1.00;;;11.90;99.90;;;;;;5070862;28;20177;-85
2021/12/25 11:40:28;;;;;;;2.97;1.00;;;12.00;99.90;;;;;;5053288;28;20760;-86
2021/12/25 11:42:57;;;;;;;1.23;0.63;;;11.90;99.90;;;;;;5072347;28;20169;-79
2021/12/25 11:45:30;;;;;;;1.27;0.80;;;11.90;99.90;;;;;;5073479;28;20177;-79
2021/12/25 11:47:59;;;;;;;1.40;0.90;;;11.80;99.90;;;;;;5073768;28;20218;-79
2021/12/25 11:50:30;;;;;;;0.77;0.63;;;11.90;99.90;;;;;;5072853;28;20309;-77
2021/12/25 11:53:10;;;;;;;0.90;0.80;;;11.90;99.90;;;;;;5054530;28;20242;-78
2021/12/25 11:58:24;;;;;;;1.10;0.60;;;11.70;99.90;;;;;;5088065;28;20680;-80
2021/12/25 12:00:52;;;;;;;2.03;0.70;;;11.70;99.90;;;;;;5070784;28;20219;-79
2021/12/25 12:03:54;;;;;;;1.37;0.87;;;11.60;99.90;;;;;;5045618;28;20176;-79
2021/12/25 12:06:48;;;;;;;0.60;0.60;;;11.70;99.90;;;;;;5042994;28;20245;-79
2021/12/25 12:09:52;;;;;;;1.50;0.80;;;11.70;99.90;;;;;;5068964;28;20183;-80
2021/12/25 12:12:29;;;;;;;0.63;0.57;;;11.70;99.90;;;;;;5065604;28;20188;-79
2021/12/25 12:15:17;;;;;;;0.77;0.70;;;11.70;99.90;;;;;;5053887;28;20196;-77
2021/12/25 12:17:45;;;;;;;0.70;0.70;;;11.70;99.90;;;;;;5071951;28;20651;-82
2021/12/25 12:20:17;;;;;;;1.07;0.80;;;11.60;99.90;;;;;;5065257;28;20519;-80
2021/12/25 12:22:59;;;;;;;0.77;0.43;;;11.60;99.90;;;;;;5056963;28;20244;-78
2021/12/25 12:26:01;;;;;;;1.37;0.90;;;11.50;99.90;;;;;;5074172;28;20640;-80
2021/12/25 12:28:59;;;;;;;0.90;0.67;;;11.50;99.90;;;;;;5073076;28;20176;-80
2021/12/25 12:31:39;;;;;;;1.00;0.90;;;11.50;99.90;;;;;;5075375;28;20181;-80
2021/12/25 12:34:31;;;;;;;0.77;0.77;;;11.50;99.90;;;;;;5071710;28;20184;-77
2021/12/25 12:37:18;;;;;;;1.17;0.90;;;11.40;99.90;;;;;;5072056;28;20208;-88
2021/12/25 12:40:07;;;;;;;1.57;1.00;;;11.50;99.90;;;;;;5078092;28;20230;-86
2021/12/25 12:42:43;;;;;;;1.60;0.90;;;11.50;99.90;;;;;;5085694;28;20175;-87
2021/12/25 12:45:13;;;;;;;2.53;1.07;;;11.40;99.90;;;;;;5072165;28;20179;-76
2021/12/25 12:47:39;;;;;;;2.23;0.90;;;11.50;99.90;;;;;;5038493;28;20187;-75
2021/12/25 12:50:11;;;;;;;0.90;0.73;;;11.50;99.90;;;;;;5067799;28;20639;-80
2021/12/25 12:52:40;;;;;;;1.33;0.73;;;11.50;99.90;;;;;;5056444;28;20254;-78
2021/12/25 12:55:08;;;;;;;1.47;1.00;;;11.50;99.90;;;;;;5054983;28;20709;-78
2021/12/25 12:57:34;;;;;;;1.40;1.03;;;11.50;99.90;;;;;;5072219;28;20176;-78
2021/12/25 13:00:09;;;;;;;3.23;1.47;;;11.60;99.90;;;;;;5072492;28;20183;-78
2021/12/25 13:02:43;;;;;;;4.27;1.23;;;11.60;99.90;;;;;;5071879;28;20581;-83
2021/12/25 13:05:11;;;;;;;1.40;0.90;;;11.60;99.90;;;;;;5054773;28;20592;-79
2021/12/25 13:07:41;;;;;;;2.20;1.20;;;11.50;99.90;;;;;;5069691;28;20639;-84
2021/12/25 13:10:34;;;;;;;1.27;0.90;;;11.60;99.90;;;;;;5039377;28;20176;-83
2021/12/25 13:13:12;;;;;;;1.27;0.90;;;11.50;99.90;;;;;;5069877;28;20176;-83
2021/12/25 13:15:40;;;;;;;3.73;1.20;;;11.50;99.90;;;;;;5072140;28;20263;-82
2021/12/25 13:18:06;;;;;;;1.47;1.30;;;11.50;99.90;;;;;;5070144;28;20237;-80
2021/12/25 13:20:38;;;;;;;2.57;1.50;;;11.50;99.90;;;;;;5072154;28;20196;-87
2021/12/25 13:23:08;;;;;;;1.63;1.30;;;11.50;99.90;;;;;;5072653;28;20177;-78
2021/12/25 13:25:35;;;;;;;3.97;1.90;;;11.40;99.90;;;;;;5072133;28;20252;-84
2021/12/25 13:28:04;;;;;;;6.93;5.03;;;11.50;99.90;;;;;;5070728;28;20215;-82
2021/12/25 13:30:32;;;;;;;2.10;1.50;;;11.40;99.90;;;;;;5070884;28;20701;-75
2021/12/25 13:33:12;;;;;;;7.50;4.63;;;11.50;99.90;;;;;;5070649;28;20226;-77
2021/12/25 13:35:40;;;;;;;2.40;1.80;;;11.30;99.90;;;;;;5070756;28;20374;-79
2021/12/25 13:38:09;;;;;;;4.27;2.90;;;11.20;99.90;;;;;;5068392;28;20204;-83
2021/12/25 13:40:39;;;;;;;5.60;3.97;;;11.20;99.90;;;;;;5072006;28;20529;-81
2021/12/25 13:43:10;;;;;;;3.33;3.03;;;11.10;99.90;;;;;;5069770;28;20172;-83
2021/12/25 13:45:37;;;;;;;2.47;2.20;;;11.00;99.90;;;;;;5048083;28;20176;-75
2021/12/25 13:48:04;;;;;;;4.27;2.97;;;11.00;99.90;;;;;;5059381;28;20237;-82
2021/12/25 13:50:31;;;;;;;4.90;3.40;;;11.00;99.90;;;;;;5070644;28;20176;-76
2021/12/25 13:53:01;;;;;;;3.47;2.40;;;10.90;99.90;;;;;;5069728;28;20201;-85
2021/12/25 13:55:33;;;;;;;7.47;4.97;;;11.00;99.90;;;;;;5069874;28;20172;-81
2021/12/25 13:58:08;;;;;;;6.03;3.93;;;11.00;99.90;;;;;;5069722;28;20230;-77
2021/12/25 14:00:36;;;;;;;14.73;10.70;;;11.00;99.90;;;;;;5053021;28;20544;-81
2021/12/25 14:03:07;;;;;;;7.30;4.77;;;11.00;99.90;;;;;;5071359;28;20187;-76
2021/12/25 14:05:37;;;;;;;3.20;2.50;;;11.10;99.90;;;;;;5068806;28;20210;-81
2021/12/25 14:08:03;;;;;;;2.83;2.33;;;11.10;99.90;;;;;;5070010;28;20251;-77
2021/12/25 14:10:34;;;;;;;3.27;2.23;;;11.10;99.90;;;;;;5071357;28;20180;-81
2021/12/25 14:13:04;;;;;;;4.27;2.70;;;11.00;99.90;;;;;;5053074;28;20564;-81
2021/12/25 14:15:33;;;;;;;5.23;3.23;;;11.00;99.90;;;;;;5068501;28;20241;-76
2021/12/25 14:18:03;;;;;;;3.73;2.83;;;11.00;99.90;;;;;;5071099;28;20551;-82
2021/12/25 14:20:32;;;;;;;5.57;2.77;;;11.00;99.90;;;;;;5080313;28;20197;-77
2021/12/25 14:23:01;;;;;;;3.93;2.80;;;10.90;99.90;;;;;;5051529;28;20193;-85
2021/12/25 14:25:31;;;;;;;4.83;3.13;;;10.90;99.90;;;;;;5050484;28;20588;-83